Mount Sterling, Missouri
Current Conditions -  °F | °C
As of 12:53 AM on Saturday 20 Dec 2014 (Local Time) from KVIH Reporting Station
Haze Haze  
Wind Chill: 30°   Ceiling: 600
Heat Index: 34°   Visibility: 6mi
Dew Point: 32°   Wind: 5mph
Humidity: 92%   Direction: 150°SSE
Pressure: 30.19"   Gusts: NA
Location:  38.47°N, 91.63°W
Report Text: KVIH 200653Z AUTO 15004KT 6SM BR OVC006 01/00 A3019 RMK AO2 SLP234 T00110000
Loading
Personal Weather Stations






























Interactive Weather Map New forecast layout! Learn more

10-Day Weather Forecast

Advertisements
Track Severe Weather on mobile